Terminal Aerodrome Forecast
Issued by NWS

Home | Current Version | Previous Version | Text Only | Print | Product List | Glossary On
Versions: 1 2 3 4 5 6 7 8 9 10 11 12 13 14
000
FTUS42 KTBW 202300
TAFLAL
TAF
KLAL 202335Z 2100/2124 VRB03KT P6SM SCT060 BKN250
     FM211200 VRB03KT P6SM SCT100 BKN250
     FM211600 VRB04KT P6SM FEW040 SCT100 BKN250
     FM211900 27005KT P6SM SCT050 BKN100
      AMD NOT SKED 2103/2112=

USA.gov is the U.S. government's official web portal to all federal, state and local government web resources and services.